sensor_id;sensor_type;location;lat;lon;timestamp;P1;durP1;ratioP1;P2;durP2;ratioP2
9422;SDS011;4750;49.506;10.400;2022-09-01T00:02:14;6.37;;;5.73;;
9422;SDS011;4750;49.506;10.400;2022-09-01T00:04:59;5.87;;;5.20;;
9422;SDS011;4750;49.506;10.400;2022-09-01T00:07:43;5.40;;;4.90;;
9422;SDS011;4750;49.506;10.400;2022-09-01T00:10:27;8.33;;;5.83;;
9422;SDS011;4750;49.506;10.400;2022-09-01T00:13:11;5.73;;;5.23;;
9422;SDS011;4750;49.506;10.400;2022-09-01T00:15:56;6.47;;;5.43;;
9422;SDS011;4750;49.506;10.400;2022-09-01T00:18:41;5.50;;;5.00;;
9422;SDS011;4750;49.506;10.400;2022-09-01T00:21:30;5.63;;;5.13;;
9422;SDS011;4750;49.506;10.400;2022-09-01T00:24:18;5.40;;;4.90;;
9422;SDS011;4750;49.506;10.400;2022-09-01T00:27:02;6.17;;;5.20;;
9422;SDS011;4750;49.506;10.400;2022-09-01T00:29:47;6.17;;;5.57;;
9422;SDS011;4750;49.506;10.400;2022-09-01T00:32:31;6.30;;;5.20;;
9422;SDS011;4750;49.506;10.400;2022-09-01T00:35:16;6.80;;;5.10;;
9422;SDS011;4750;49.506;10.400;2022-09-01T00:38:01;6.13;;;5.13;;
9422;SDS011;4750;49.506;10.400;2022-09-01T00:40:45;5.90;;;5.40;;
9422;SDS011;4750;49.506;10.400;2022-09-01T00:43:44;6.00;;;5.50;;
9422;SDS011;4750;49.506;10.400;2022-09-01T00:46:32;7.30;;;5.40;;
9422;SDS011;4750;49.506;10.400;2022-09-01T00:49:20;7.93;;;5.17;;
9422;SDS011;4750;49.506;10.400;2022-09-01T00:55:26;5.77;;;5.23;;
9422;SDS011;4750;49.506;10.400;2022-09-01T00:58:13;5.53;;;4.90;;
9422;SDS011;4750;49.506;10.400;2022-09-01T01:00:57;5.73;;;4.80;;
9422;SDS011;4750;49.506;10.400;2022-09-01T01:03:41;6.17;;;5.67;;
9422;SDS011;4750;49.506;10.400;2022-09-01T01:06:28;6.47;;;5.87;;
9422;SDS011;4750;49.506;10.400;2022-09-01T01:09:16;8.97;;;5.67;;
9422;SDS011;4750;49.506;10.400;2022-09-01T01:12:03;6.53;;;5.93;;
9422;SDS011;4750;49.506;10.400;2022-09-01T01:14:50;5.87;;;5.37;;
9422;SDS011;4750;49.506;10.400;2022-09-01T01:17:34;7.50;;;5.50;;
9422;SDS011;4750;49.506;10.400;2022-09-01T01:20:19;6.93;;;6.20;;
9422;SDS011;4750;49.506;10.400;2022-09-01T01:23:36;6.83;;;5.73;;
9422;SDS011;4750;49.506;10.400;2022-09-01T01:26:41;6.23;;;5.40;;
9422;SDS011;4750;49.506;10.400;2022-09-01T01:29:26;6.97;;;5.53;;
9422;SDS011;4750;49.506;10.400;2022-09-01T01:32:15;6.43;;;5.83;;
9422;SDS011;4750;49.506;10.400;2022-09-01T01:35:01;7.20;;;6.00;;
9422;SDS011;4750;49.506;10.400;2022-09-01T01:37:48;5.93;;;5.40;;
9422;SDS011;4750;49.506;10.400;2022-09-01T01:40:35;6.13;;;5.63;;
9422;SDS011;4750;49.506;10.400;2022-09-01T01:43:21;6.67;;;6.07;;
9422;SDS011;4750;49.506;10.400;2022-09-01T01:46:07;6.67;;;5.73;;
9422;SDS011;4750;49.506;10.400;2022-09-01T01:48:55;6.27;;;5.67;;
9422;SDS011;4750;49.506;10.400;2022-09-01T01:51:40;6.30;;;5.70;;
9422;SDS011;4750;49.506;10.400;2022-09-01T01:54:25;6.23;;;5.73;;
9422;SDS011;4750;49.506;10.400;2022-09-01T01:57:12;6.80;;;6.13;;
9422;SDS011;4750;49.506;10.400;2022-09-01T02:00:00;6.93;;;5.97;;
9422;SDS011;4750;49.506;10.400;2022-09-01T02:02:46;6.47;;;5.87;;
9422;SDS011;4750;49.506;10.400;2022-09-01T02:05:35;5.83;;;5.33;;
9422;SDS011;4750;49.506;10.400;2022-09-01T02:08:20;6.40;;;5.80;;
9422;SDS011;4750;49.506;10.400;2022-09-01T02:11:08;7.90;;;5.53;;
9422;SDS011;4750;49.506;10.400;2022-09-01T02:13:55;6.30;;;5.70;;
9422;SDS011;4750;49.506;10.400;2022-09-01T02:16:40;6.67;;;6.00;;
9422;SDS011;4750;49.506;10.400;2022-09-01T02:19:24;6.13;;;5.57;;
9422;SDS011;4750;49.506;10.400;2022-09-01T02:22:08;6.60;;;5.90;;
9422;SDS011;4750;49.506;10.400;2022-09-01T02:24:53;5.73;;;5.23;;
9422;SDS011;4750;49.506;10.400;2022-09-01T02:27:38;7.27;;;6.57;;
9422;SDS011;4750;49.506;10.400;2022-09-01T02:30:25;7.00;;;6.30;;
9422;SDS011;4750;49.506;10.400;2022-09-01T02:33:14;7.17;;;6.47;;
9422;SDS011;4750;49.506;10.400;2022-09-01T02:36:05;7.63;;;6.93;;
9422;SDS011;4750;49.506;10.400;2022-09-01T02:38:55;10.07;;;7.40;;
9422;SDS011;4750;49.506;10.400;2022-09-01T02:41:39;7.50;;;6.80;;
9422;SDS011;4750;49.506;10.400;2022-09-01T02:44:24;7.20;;;6.50;;
9422;SDS011;4750;49.506;10.400;2022-09-01T02:47:10;7.67;;;6.57;;
9422;SDS011;4750;49.506;10.400;2022-09-01T02:49:54;6.73;;;6.13;;
9422;SDS011;4750;49.506;10.400;2022-09-01T02:52:38;7.80;;;7.10;;
9422;SDS011;4750;49.506;10.400;2022-09-01T02:55:24;8.13;;;7.33;;
9422;SDS011;4750;49.506;10.400;2022-09-01T02:58:08;8.97;;;7.63;;
9422;SDS011;4750;49.506;10.400;2022-09-01T03:00:58;13.17;;;8.10;;
9422;SDS011;4750;49.506;10.400;2022-09-01T03:03:42;9.60;;;8.67;;
9422;SDS011;4750;49.506;10.400;2022-09-01T03:06:27;8.37;;;7.57;;
9422;SDS011;4750;49.506;10.400;2022-09-01T03:09:13;7.80;;;7.10;;
9422;SDS011;4750;49.506;10.400;2022-09-01T03:11:58;8.47;;;7.67;;
9422;SDS011;4750;49.506;10.400;2022-09-01T03:14:43;8.10;;;7.30;;
9422;SDS011;4750;49.506;10.400;2022-09-01T03:17:27;8.67;;;7.77;;
9422;SDS011;4750;49.506;10.400;2022-09-01T03:20:10;8.07;;;7.30;;
9422;SDS011;4750;49.506;10.400;2022-09-01T03:22:55;7.03;;;6.33;;
9422;SDS011;4750;49.506;10.400;2022-09-01T03:25:41;8.23;;;7.53;;
9422;SDS011;4750;49.506;10.400;2022-09-01T03:28:27;8.73;;;7.93;;
9422;SDS011;4750;49.506;10.400;2022-09-01T03:31:11;10.27;;;8.17;;
9422;SDS011;4750;49.506;10.400;2022-09-01T03:33:56;9.30;;;7.93;;
9422;SDS011;4750;49.506;10.400;2022-09-01T03:36:47;9.67;;;8.67;;
9422;SDS011;4750;49.506;10.400;2022-09-01T03:39:36;13.17;;;9.30;;
9422;SDS011;4750;49.506;10.400;2022-09-01T03:42:20;9.17;;;8.23;;
9422;SDS011;4750;49.506;10.400;2022-09-01T03:45:09;10.23;;;7.70;;
9422;SDS011;4750;49.506;10.400;2022-09-01T03:47:56;9.50;;;8.60;;
9422;SDS011;4750;49.506;10.400;2022-09-01T03:50:41;9.50;;;8.60;;
9422;SDS011;4750;49.506;10.400;2022-09-01T03:53:30;8.53;;;7.53;;
9422;SDS011;4750;49.506;10.400;2022-09-01T03:56:19;8.63;;;7.77;;
9422;SDS011;4750;49.506;10.400;2022-09-01T03:59:07;8.57;;;7.77;;
9422;SDS011;4750;49.506;10.400;2022-09-01T04:01:59;8.10;;;7.13;;
9422;SDS011;4750;49.506;10.400;2022-09-01T04:04:45;8.83;;;7.80;;
9422;SDS011;4750;49.506;10.400;2022-09-01T04:07:29;10.60;;;7.37;;
9422;SDS011;4750;49.506;10.400;2022-09-01T04:10:13;9.07;;;6.93;;
9422;SDS011;4750;49.506;10.400;2022-09-01T04:12:59;8.13;;;7.33;;
9422;SDS011;4750;49.506;10.400;2022-09-01T04:15:44;8.17;;;7.37;;
9422;SDS011;4750;49.506;10.400;2022-09-01T04:18:29;9.07;;;7.23;;
9422;SDS011;4750;49.506;10.400;2022-09-01T04:21:13;8.23;;;7.33;;
9422;SDS011;4750;49.506;10.400;2022-09-01T04:23:57;8.33;;;7.40;;
9422;SDS011;4750;49.506;10.400;2022-09-01T04:26:43;7.20;;;6.60;;
9422;SDS011;4750;49.506;10.400;2022-09-01T04:29:30;7.07;;;6.47;;
9422;SDS011;4750;49.506;10.400;2022-09-01T04:32:15;7.43;;;6.73;;
9422;SDS011;4750;49.506;10.400;2022-09-01T04:35:07;8.30;;;6.90;;
9422;SDS011;4750;49.506;10.400;2022-09-01T04:37:54;8.33;;;7.63;;
9422;SDS011;4750;49.506;10.400;2022-09-01T04:40:38;9.80;;;7.77;;
9422;SDS011;4750;49.506;10.400;2022-09-01T04:43:23;8.43;;;7.63;;
9422;SDS011;4750;49.506;10.400;2022-09-01T04:46:07;9.00;;;8.10;;
9422;SDS011;4750;49.506;10.400;2022-09-01T04:48:52;7.60;;;6.90;;
9422;SDS011;4750;49.506;10.400;2022-09-01T04:51:38;7.20;;;6.50;;
9422;SDS011;4750;49.506;10.400;2022-09-01T04:54:23;7.90;;;7.20;;
9422;SDS011;4750;49.506;10.400;2022-09-01T04:57:07;7.30;;;6.60;;
9422;SDS011;4750;49.506;10.400;2022-09-01T04:59:54;7.20;;;6.50;;
9422;SDS011;4750;49.506;10.400;2022-09-01T05:02:40;7.10;;;6.40;;
9422;SDS011;4750;49.506;10.400;2022-09-01T05:05:24;6.57;;;5.97;;
9422;SDS011;4750;49.506;10.400;2022-09-01T05:08:11;6.83;;;6.23;;
9422;SDS011;4750;49.506;10.400;2022-09-01T05:11:02;7.53;;;6.20;;
9422;SDS011;4750;49.506;10.400;2022-09-01T05:14:07;7.50;;;6.80;;
9422;SDS011;4750;49.506;10.400;2022-09-01T05:16:55;7.13;;;6.43;;
9422;SDS011;4750;49.506;10.400;2022-09-01T05:19:43;7.60;;;6.90;;
9422;SDS011;4750;49.506;10.400;2022-09-01T05:22:31;8.17;;;6.50;;
9422;SDS011;4750;49.506;10.400;2022-09-01T05:25:21;6.80;;;6.20;;
9422;SDS011;4750;49.506;10.400;2022-09-01T05:28:05;5.63;;;5.13;;
9422;SDS011;4750;49.506;10.400;2022-09-01T05:30:53;5.37;;;4.87;;
9422;SDS011;4750;49.506;10.400;2022-09-01T05:33:38;5.70;;;5.20;;
9422;SDS011;4750;49.506;10.400;2022-09-01T05:36:28;5.50;;;5.00;;
9422;SDS011;4750;49.506;10.400;2022-09-01T05:39:16;5.67;;;5.17;;
9422;SDS011;4750;49.506;10.400;2022-09-01T05:42:01;5.07;;;4.67;;
9422;SDS011;4750;49.506;10.400;2022-09-01T05:44:47;6.13;;;5.00;;
9422;SDS011;4750;49.506;10.400;2022-09-01T05:47:33;5.20;;;4.70;;
9422;SDS011;4750;49.506;10.400;2022-09-01T05:50:19;7.63;;;4.80;;
9422;SDS011;4750;49.506;10.400;2022-09-01T05:53:04;5.13;;;4.63;;
9422;SDS011;4750;49.506;10.400;2022-09-01T05:55:53;9.43;;;5.27;;
9422;SDS011;4750;49.506;10.400;2022-09-01T05:58:40;4.73;;;4.33;;
9422;SDS011;4750;49.506;10.400;2022-09-01T06:01:27;5.30;;;4.80;;
9422;SDS011;4750;49.506;10.400;2022-09-01T06:04:13;4.77;;;4.37;;
9422;SDS011;4750;49.506;10.400;2022-09-01T06:06:59;6.63;;;4.47;;
9422;SDS011;4750;49.506;10.400;2022-09-01T06:09:45;6.90;;;4.70;;
9422;SDS011;4750;49.506;10.400;2022-09-01T06:12:31;3.97;;;3.67;;
9422;SDS011;4750;49.506;10.400;2022-09-01T06:15:16;4.90;;;4.40;;
9422;SDS011;4750;49.506;10.400;2022-09-01T06:18:08;6.30;;;3.67;;
9422;SDS011;4750;49.506;10.400;2022-09-01T06:21:03;4.70;;;3.23;;
9422;SDS011;4750;49.506;10.400;2022-09-01T06:23:48;3.33;;;3.00;;
9422;SDS011;4750;49.506;10.400;2022-09-01T06:26:37;3.57;;;2.90;;
9422;SDS011;4750;49.506;10.400;2022-09-01T06:29:24;3.27;;;2.97;;
9422;SDS011;4750;49.506;10.400;2022-09-01T06:32:09;3.40;;;3.20;;
9422;SDS011;4750;49.506;10.400;2022-09-01T06:34:55;6.97;;;3.33;;
9422;SDS011;4750;49.506;10.400;2022-09-01T06:37:41;3.43;;;2.70;;
9422;SDS011;4750;49.506;10.400;2022-09-01T06:40:28;3.40;;;3.10;;
9422;SDS011;4750;49.506;10.400;2022-09-01T06:43:13;3.37;;;2.83;;
9422;SDS011;4750;49.506;10.400;2022-09-01T06:46:03;3.40;;;3.10;;
9422;SDS011;4750;49.506;10.400;2022-09-01T06:48:46;3.73;;;2.80;;
9422;SDS011;4750;49.506;10.400;2022-09-01T06:51:31;3.50;;;3.17;;
9422;SDS011;4750;49.506;10.400;2022-09-01T06:54:16;6.83;;;3.07;;
9422;SDS011;4750;49.506;10.400;2022-09-01T06:57:02;3.97;;;3.30;;
9422;SDS011;4750;49.506;10.400;2022-09-01T06:59:47;4.10;;;3.47;;
9422;SDS011;4750;49.506;10.400;2022-09-01T07:02:31;3.73;;;3.33;;
9422;SDS011;4750;49.506;10.400;2022-09-01T07:05:46;4.40;;;4.00;;
9422;SDS011;4750;49.506;10.400;2022-09-01T07:08:36;6.00;;;4.40;;
9422;SDS011;4750;49.506;10.400;2022-09-01T07:11:28;4.77;;;3.80;;
9422;SDS011;4750;49.506;10.400;2022-09-01T07:14:15;3.23;;;2.93;;
9422;SDS011;4750;49.506;10.400;2022-09-01T07:16:59;4.00;;;3.60;;
9422;SDS011;4750;49.506;10.400;2022-09-01T07:19:43;5.50;;;3.27;;
9422;SDS011;4750;49.506;10.400;2022-09-01T07:22:29;3.83;;;3.40;;
9422;SDS011;4750;49.506;10.400;2022-09-01T07:25:13;6.77;;;3.03;;
9422;SDS011;4750;49.506;10.400;2022-09-01T07:28:07;4.50;;;3.60;;
9422;SDS011;4750;49.506;10.400;2022-09-01T07:30:52;3.93;;;3.53;;
9422;SDS011;4750;49.506;10.400;2022-09-01T07:33:38;3.60;;;3.30;;
9422;SDS011;4750;49.506;10.400;2022-09-01T07:36:23;3.57;;;3.27;;
9422;SDS011;4750;49.506;10.400;2022-09-01T07:39:09;3.43;;;3.03;;
9422;SDS011;4750;49.506;10.400;2022-09-01T07:41:55;5.73;;;3.33;;
9422;SDS011;4750;49.506;10.400;2022-09-01T07:45:05;3.30;;;3.00;;
9422;SDS011;4750;49.506;10.400;2022-09-01T07:48:04;2.90;;;2.70;;
9422;SDS011;4750;49.506;10.400;2022-09-01T07:50:54;3.57;;;3.17;;
9422;SDS011;4750;49.506;10.400;2022-09-01T07:53:40;3.87;;;3.10;;
9422;SDS011;4750;49.506;10.400;2022-09-01T07:56:29;3.80;;;2.70;;
9422;SDS011;4750;49.506;10.400;2022-09-01T07:59:14;3.97;;;2.57;;
9422;SDS011;4750;49.506;10.400;2022-09-01T08:02:06;3.27;;;2.97;;
9422;SDS011;4750;49.506;10.400;2022-09-01T08:04:51;4.90;;;3.17;;
9422;SDS011;4750;49.506;10.400;2022-09-01T08:07:36;3.77;;;3.47;;
9422;SDS011;4750;49.506;10.400;2022-09-01T08:10:21;4.13;;;3.00;;
9422;SDS011;4750;49.506;10.400;2022-09-01T08:13:07;3.87;;;3.13;;
9422;SDS011;4750;49.506;10.400;2022-09-01T08:15:51;3.47;;;3.17;;
9422;SDS011;4750;49.506;10.400;2022-09-01T08:18:35;3.33;;;2.90;;
9422;SDS011;4750;49.506;10.400;2022-09-01T08:21:20;4.03;;;3.30;;
9422;SDS011;4750;49.506;10.400;2022-09-01T08:24:19;5.87;;;3.00;;
9422;SDS011;4750;49.506;10.400;2022-09-01T08:27:05;5.13;;;3.20;;
9422;SDS011;4750;49.506;10.400;2022-09-01T08:29:49;4.10;;;3.43;;
9422;SDS011;4750;49.506;10.400;2022-09-01T08:32:33;4.87;;;2.53;;
9422;SDS011;4750;49.506;10.400;2022-09-01T08:35:18;3.00;;;2.70;;
9422;SDS011;4750;49.506;10.400;2022-09-01T08:38:02;3.90;;;3.27;;
9422;SDS011;4750;49.506;10.400;2022-09-01T08:40:51;3.30;;;3.00;;
9422;SDS011;4750;49.506;10.400;2022-09-01T08:46:36;3.40;;;2.60;;
9422;SDS011;4750;49.506;10.400;2022-09-01T08:49:23;3.50;;;3.00;;
9422;SDS011;4750;49.506;10.400;2022-09-01T08:52:36;4.20;;;3.10;;
9422;SDS011;4750;49.506;10.400;2022-09-01T08:55:25;4.90;;;2.80;;
9422;SDS011;4750;49.506;10.400;2022-09-01T08:58:15;6.10;;;3.57;;
9422;SDS011;4750;49.506;10.400;2022-09-01T09:01:30;3.63;;;3.10;;
9422;SDS011;4750;49.506;10.400;2022-09-01T09:04:36;3.87;;;3.10;;
9422;SDS011;4750;49.506;10.400;2022-09-01T09:10:41;3.10;;;2.70;;
9422;SDS011;4750;49.506;10.400;2022-09-01T09:16:51;3.83;;;2.80;;
9422;SDS011;4750;49.506;10.400;2022-09-01T09:19:41;2.77;;;2.53;;
9422;SDS011;4750;49.506;10.400;2022-09-01T09:22:26;3.03;;;2.83;;
9422;SDS011;4750;49.506;10.400;2022-09-01T09:25:15;3.47;;;3.17;;
9422;SDS011;4750;49.506;10.400;2022-09-01T09:28:01;8.27;;;3.23;;
9422;SDS011;4750;49.506;10.400;2022-09-01T09:30:45;3.67;;;3.03;;
9422;SDS011;4750;49.506;10.400;2022-09-01T09:33:38;4.50;;;3.07;;
9422;SDS011;4750;49.506;10.400;2022-09-01T09:36:27;3.40;;;3.10;;
9422;SDS011;4750;49.506;10.400;2022-09-01T09:39:16;4.90;;;3.70;;
9422;SDS011;4750;49.506;10.400;2022-09-01T09:42:03;3.40;;;3.10;;
9422;SDS011;4750;49.506;10.400;2022-09-01T09:44:52;4.70;;;2.33;;
9422;SDS011;4750;49.506;10.400;2022-09-01T09:47:42;3.77;;;3.47;;
9422;SDS011;4750;49.506;10.400;2022-09-01T09:50:29;4.50;;;3.10;;
9422;SDS011;4750;49.506;10.400;2022-09-01T09:53:25;2.83;;;2.60;;
9422;SDS011;4750;49.506;10.400;2022-09-01T09:58:58;2.77;;;2.30;;
9422;SDS011;4750;49.506;10.400;2022-09-01T10:01:42;2.50;;;2.30;;
9422;SDS011;4750;49.506;10.400;2022-09-01T10:04:30;4.30;;;2.43;;
9422;SDS011;4750;49.506;10.400;2022-09-01T10:07:23;3.13;;;2.13;;
9422;SDS011;4750;49.506;10.400;2022-09-01T10:13:25;3.83;;;2.10;;
9422;SDS011;4750;49.506;10.400;2022-09-01T10:16:35;5.97;;;2.10;;
9422;SDS011;4750;49.506;10.400;2022-09-01T10:19:21;1.77;;;1.67;;
9422;SDS011;4750;49.506;10.400;2022-09-01T10:22:07;2.20;;;2.00;;
9422;SDS011;4750;49.506;10.400;2022-09-01T10:24:52;2.03;;;1.67;;
9422;SDS011;4750;49.506;10.400;2022-09-01T10:27:37;2.33;;;2.00;;
9422;SDS011;4750;49.506;10.400;2022-09-01T10:30:26;6.70;;;2.60;;
9422;SDS011;4750;49.506;10.400;2022-09-01T10:33:13;5.03;;;1.90;;
9422;SDS011;4750;49.506;10.400;2022-09-01T10:35:58;2.37;;;2.00;;
9422;SDS011;4750;49.506;10.400;2022-09-01T10:38:42;2.57;;;1.80;;
9422;SDS011;4750;49.506;10.400;2022-09-01T10:44:56;4.17;;;1.67;;
9422;SDS011;4750;49.506;10.400;2022-09-01T10:47:42;1.67;;;1.57;;
9422;SDS011;4750;49.506;10.400;2022-09-01T10:50:29;3.90;;;2.07;;
9422;SDS011;4750;49.506;10.400;2022-09-01T10:56:37;2.20;;;1.70;;
9422;SDS011;4750;49.506;10.400;2022-09-01T10:59:33;4.00;;;2.00;;
9422;SDS011;4750;49.506;10.400;2022-09-01T11:02:18;2.07;;;1.90;;
9422;SDS011;4750;49.506;10.400;2022-09-01T11:07:48;1.73;;;1.50;;
9422;SDS011;4750;49.506;10.400;2022-09-01T11:10:35;1.93;;;1.50;;
9422;SDS011;4750;49.506;10.400;2022-09-01T11:13:32;3.00;;;1.37;;
9422;SDS011;4750;49.506;10.400;2022-09-01T11:22:30;2.00;;;1.80;;
9422;SDS011;4750;49.506;10.400;2022-09-01T11:31:15;2.07;;;1.80;;
9422;SDS011;4750;49.506;10.400;2022-09-01T11:36:55;1.70;;;1.57;;
9422;SDS011;4750;49.506;10.400;2022-09-01T11:39:47;3.50;;;1.70;;
9422;SDS011;4750;49.506;10.400;2022-09-01T11:42:39;2.13;;;1.70;;
9422;SDS011;4750;49.506;10.400;2022-09-01T11:45:30;3.77;;;1.80;;
9422;SDS011;4750;49.506;10.400;2022-09-01T11:48:16;3.93;;;1.70;;
9422;SDS011;4750;49.506;10.400;2022-09-01T11:51:01;1.80;;;1.67;;
9422;SDS011;4750;49.506;10.400;2022-09-01T11:53:46;1.50;;;1.40;;
9422;SDS011;4750;49.506;10.400;2022-09-01T11:56:32;1.60;;;1.30;;
9422;SDS011;4750;49.506;10.400;2022-09-01T12:02:34;1.83;;;1.50;;
9422;SDS011;4750;49.506;10.400;2022-09-01T12:05:35;4.03;;;1.70;;
9422;SDS011;4750;49.506;10.400;2022-09-01T12:08:21;5.40;;;1.37;;
9422;SDS011;4750;49.506;10.400;2022-09-01T12:11:06;2.00;;;1.70;;
9422;SDS011;4750;49.506;10.400;2022-09-01T12:14:03;1.80;;;1.70;;
9422;SDS011;4750;49.506;10.400;2022-09-01T12:17:00;1.97;;;1.57;;
9422;SDS011;4750;49.506;10.400;2022-09-01T12:19:46;1.77;;;1.50;;
9422;SDS011;4750;49.506;10.400;2022-09-01T12:22:31;1.67;;;1.30;;
9422;SDS011;4750;49.506;10.400;2022-09-01T12:25:33;2.63;;;1.40;;
9422;SDS011;4750;49.506;10.400;2022-09-01T12:28:18;1.83;;;1.70;;
9422;SDS011;4750;49.506;10.400;2022-09-01T12:31:03;2.00;;;1.60;;
9422;SDS011;4750;49.506;10.400;2022-09-01T12:33:50;2.47;;;1.87;;
9422;SDS011;4750;49.506;10.400;2022-09-01T12:36:35;1.93;;;1.57;;
9422;SDS011;4750;49.506;10.400;2022-09-01T12:39:21;2.80;;;1.70;;
9422;SDS011;4750;49.506;10.400;2022-09-01T12:45:03;1.80;;;1.70;;
9422;SDS011;4750;49.506;10.400;2022-09-01T12:47:50;4.17;;;1.70;;
9422;SDS011;4750;49.506;10.400;2022-09-01T12:50:34;2.77;;;1.80;;
9422;SDS011;4750;49.506;10.400;2022-09-01T12:53:25;1.80;;;1.70;;
9422;SDS011;4750;49.506;10.400;2022-09-01T12:56:19;2.67;;;1.80;;
9422;SDS011;4750;49.506;10.400;2022-09-01T13:01:55;1.70;;;1.60;;
9422;SDS011;4750;49.506;10.400;2022-09-01T13:04:39;1.70;;;1.60;;
9422;SDS011;4750;49.506;10.400;2022-09-01T13:07:24;5.00;;;1.87;;
9422;SDS011;4750;49.506;10.400;2022-09-01T13:10:08;3.47;;;2.03;;
9422;SDS011;4750;49.506;10.400;2022-09-01T13:12:53;2.10;;;1.90;;
9422;SDS011;4750;49.506;10.400;2022-09-01T13:15:39;2.40;;;1.77;;
9422;SDS011;4750;49.506;10.400;2022-09-01T13:18:26;1.73;;;1.57;;
9422;SDS011;4750;49.506;10.400;2022-09-01T13:21:11;2.37;;;1.50;;
9422;SDS011;4750;49.506;10.400;2022-09-01T13:23:56;2.17;;;1.67;;
9422;SDS011;4750;49.506;10.400;2022-09-01T13:26:40;1.93;;;1.73;;
9422;SDS011;4750;49.506;10.400;2022-09-01T13:29:24;2.57;;;1.57;;
9422;SDS011;4750;49.506;10.400;2022-09-01T13:32:08;1.67;;;1.57;;
9422;SDS011;4750;49.506;10.400;2022-09-01T13:34:52;5.63;;;1.60;;
9422;SDS011;4750;49.506;10.400;2022-09-01T13:37:37;1.73;;;1.63;;
9422;SDS011;4750;49.506;10.400;2022-09-01T13:40:22;1.47;;;1.37;;
9422;SDS011;4750;49.506;10.400;2022-09-01T13:43:06;2.00;;;1.50;;
9422;SDS011;4750;49.506;10.400;2022-09-01T13:45:51;1.77;;;1.67;;
9422;SDS011;4750;49.506;10.400;2022-09-01T13:48:36;1.50;;;1.40;;
9422;SDS011;4750;49.506;10.400;2022-09-01T13:51:26;3.53;;;1.97;;
9422;SDS011;4750;49.506;10.400;2022-09-01T13:54:11;4.60;;;2.23;;
9422;SDS011;4750;49.506;10.400;2022-09-01T13:56:54;1.83;;;1.50;;
9422;SDS011;4750;49.506;10.400;2022-09-01T13:59:39;2.57;;;1.60;;
9422;SDS011;4750;49.506;10.400;2022-09-01T14:02:24;1.30;;;1.20;;
9422;SDS011;4750;49.506;10.400;2022-09-01T14:05:09;1.87;;;1.60;;
9422;SDS011;4750;49.506;10.400;2022-09-01T14:07:53;1.87;;;1.73;;
9422;SDS011;4750;49.506;10.400;2022-09-01T14:10:42;2.10;;;1.60;;
9422;SDS011;4750;49.506;10.400;2022-09-01T14:13:28;2.27;;;1.80;;
9422;SDS011;4750;49.506;10.400;2022-09-01T14:16:14;1.50;;;1.40;;
9422;SDS011;4750;49.506;10.400;2022-09-01T14:18:58;2.20;;;1.67;;
9422;SDS011;4750;49.506;10.400;2022-09-01T14:21:45;5.73;;;1.80;;
9422;SDS011;4750;49.506;10.400;2022-09-01T14:24:30;2.73;;;1.80;;
9422;SDS011;4750;49.506;10.400;2022-09-01T14:27:18;3.20;;;1.60;;
9422;SDS011;4750;49.506;10.400;2022-09-01T14:30:06;2.20;;;1.90;;
9422;SDS011;4750;49.506;10.400;2022-09-01T14:32:52;2.03;;;1.73;;
9422;SDS011;4750;49.506;10.400;2022-09-01T14:35:38;1.93;;;1.63;;
9422;SDS011;4750;49.506;10.400;2022-09-01T14:38:23;2.17;;;1.63;;
9422;SDS011;4750;49.506;10.400;2022-09-01T14:41:07;4.80;;;1.70;;
9422;SDS011;4750;49.506;10.400;2022-09-01T14:43:52;1.83;;;1.73;;
9422;SDS011;4750;49.506;10.400;2022-09-01T14:46:37;1.83;;;1.73;;
9422;SDS011;4750;49.506;10.400;2022-09-01T14:49:22;2.70;;;1.80;;
9422;SDS011;4750;49.506;10.400;2022-09-01T14:52:06;2.30;;;1.80;;
9422;SDS011;4750;49.506;10.400;2022-09-01T14:54:51;3.73;;;2.10;;
9422;SDS011;4750;49.506;10.400;2022-09-01T14:57:35;1.80;;;1.70;;
9422;SDS011;4750;49.506;10.400;2022-09-01T15:00:20;1.73;;;1.63;;
9422;SDS011;4750;49.506;10.400;2022-09-01T15:03:05;3.20;;;1.80;;
9422;SDS011;4750;49.506;10.400;2022-09-01T15:05:49;3.10;;;2.00;;
9422;SDS011;4750;49.506;10.400;2022-09-01T15:08:33;2.10;;;1.90;;
9422;SDS011;4750;49.506;10.400;2022-09-01T15:11:18;2.13;;;1.90;;
9422;SDS011;4750;49.506;10.400;2022-09-01T15:14:03;2.57;;;2.10;;
9422;SDS011;4750;49.506;10.400;2022-09-01T15:16:47;4.53;;;1.70;;
9422;SDS011;4750;49.506;10.400;2022-09-01T15:19:31;2.10;;;1.90;;
9422;SDS011;4750;49.506;10.400;2022-09-01T15:22:15;2.20;;;1.57;;
9422;SDS011;4750;49.506;10.400;2022-09-01T15:24:59;2.10;;;1.53;;
9422;SDS011;4750;49.506;10.400;2022-09-01T15:27:44;2.83;;;1.90;;
9422;SDS011;4750;49.506;10.400;2022-09-01T15:30:29;1.97;;;1.63;;
9422;SDS011;4750;49.506;10.400;2022-09-01T15:33:13;3.07;;;2.10;;
9422;SDS011;4750;49.506;10.400;2022-09-01T15:35:58;1.80;;;1.70;;
9422;SDS011;4750;49.506;10.400;2022-09-01T15:38:42;2.07;;;1.80;;
9422;SDS011;4750;49.506;10.400;2022-09-01T15:41:29;3.00;;;1.70;;
9422;SDS011;4750;49.506;10.400;2022-09-01T15:44:14;3.53;;;1.93;;
9422;SDS011;4750;49.506;10.400;2022-09-01T15:46:59;1.70;;;1.60;;
9422;SDS011;4750;49.506;10.400;2022-09-01T15:49:43;2.60;;;1.90;;
9422;SDS011;4750;49.506;10.400;2022-09-01T15:52:27;2.00;;;1.90;;
9422;SDS011;4750;49.506;10.400;2022-09-01T15:55:12;2.00;;;1.80;;
9422;SDS011;4750;49.506;10.400;2022-09-01T15:57:57;1.70;;;1.60;;
9422;SDS011;4750;49.506;10.400;2022-09-01T16:00:42;1.77;;;1.50;;
9422;SDS011;4750;49.506;10.400;2022-09-01T16:03:27;2.27;;;1.60;;
9422;SDS011;4750;49.506;10.400;2022-09-01T16:06:13;1.63;;;1.50;;
9422;SDS011;4750;49.506;10.400;2022-09-01T16:08:57;1.80;;;1.70;;
9422;SDS011;4750;49.506;10.400;2022-09-01T16:11:41;2.40;;;1.50;;
9422;SDS011;4750;49.506;10.400;2022-09-01T16:14:25;2.63;;;1.70;;
9422;SDS011;4750;49.506;10.400;2022-09-01T16:17:13;2.40;;;1.97;;
9422;SDS011;4750;49.506;10.400;2022-09-01T16:20:13;1.97;;;1.70;;
9422;SDS011;4750;49.506;10.400;2022-09-01T16:23:11;3.50;;;1.80;;
9422;SDS011;4750;49.506;10.400;2022-09-01T16:25:59;1.80;;;1.70;;
9422;SDS011;4750;49.506;10.400;2022-09-01T16:28:44;4.43;;;2.03;;
9422;SDS011;4750;49.506;10.400;2022-09-01T16:31:31;2.10;;;1.80;;
9422;SDS011;4750;49.506;10.400;2022-09-01T16:34:17;4.30;;;1.63;;
9422;SDS011;4750;49.506;10.400;2022-09-01T16:37:07;2.57;;;1.97;;
9422;SDS011;4750;49.506;10.400;2022-09-01T16:40:03;2.00;;;1.80;;
9422;SDS011;4750;49.506;10.400;2022-09-01T16:42:52;1.80;;;1.70;;
9422;SDS011;4750;49.506;10.400;2022-09-01T16:46:03;3.27;;;1.60;;
9422;SDS011;4750;49.506;10.400;2022-09-01T16:48:59;1.50;;;1.40;;
9422;SDS011;4750;49.506;10.400;2022-09-01T16:52:03;1.70;;;1.60;;
9422;SDS011;4750;49.506;10.400;2022-09-01T17:04:14;1.73;;;1.63;;
9422;SDS011;4750;49.506;10.400;2022-09-01T17:07:28;1.90;;;1.63;;
9422;SDS011;4750;49.506;10.400;2022-09-01T17:16:20;2.93;;;1.83;;
9422;SDS011;4750;49.506;10.400;2022-09-01T17:19:15;4.10;;;2.00;;
9422;SDS011;4750;49.506;10.400;2022-09-01T17:22:11;2.67;;;1.70;;
9422;SDS011;4750;49.506;10.400;2022-09-01T17:24:58;1.73;;;1.63;;
9422;SDS011;4750;49.506;10.400;2022-09-01T17:27:54;1.70;;;1.60;;
9422;SDS011;4750;49.506;10.400;2022-09-01T17:30:51;2.67;;;2.03;;
9422;SDS011;4750;49.506;10.400;2022-09-01T17:39:36;1.97;;;1.83;;
9422;SDS011;4750;49.506;10.400;2022-09-01T17:42:35;3.03;;;2.13;;
9422;SDS011;4750;49.506;10.400;2022-09-01T17:45:39;3.53;;;1.70;;
9422;SDS011;4750;49.506;10.400;2022-09-01T17:48:38;2.53;;;2.23;;
9422;SDS011;4750;49.506;10.400;2022-09-01T17:54:57;1.90;;;1.80;;
9422;SDS011;4750;49.506;10.400;2022-09-01T17:58:10;1.87;;;1.77;;
9422;SDS011;4750;49.506;10.400;2022-09-01T18:01:02;1.73;;;1.60;;
9422;SDS011;4750;49.506;10.400;2022-09-01T18:04:12;1.53;;;1.43;;
9422;SDS011;4750;49.506;10.400;2022-09-01T18:10:16;2.43;;;1.60;;
9422;SDS011;4750;49.506;10.400;2022-09-01T18:13:15;1.93;;;1.80;;
9422;SDS011;4750;49.506;10.400;2022-09-01T18:16:12;1.80;;;1.70;;
9422;SDS011;4750;49.506;10.400;2022-09-01T18:19:02;1.50;;;1.40;;
9422;SDS011;4750;49.506;10.400;2022-09-01T18:21:55;3.30;;;1.77;;
9422;SDS011;4750;49.506;10.400;2022-09-01T18:24:52;3.00;;;1.67;;
9422;SDS011;4750;49.506;10.400;2022-09-01T18:27:40;3.60;;;1.80;;